Time;durP1;ratioP1;P1;durP2;ratioP2;P2;SDS_P1;SDS_P2;PMS_P1;PMS_P2;Temp;Humidity;BMP_temperature;BMP_pressure;BME280_temperature;BME280_humidity;BME280_pressure;Samples;Min_cycle;Max_cycle;Signal;HPM_P1;HPM_P2
2024/02/17 00:02:25;;;;;;;17.33;9.85;;;12.30;99.90;;;;;;5041040;28;20033;-69
2024/02/17 00:04:50;;;;;;;20.63;9.25;;;12.40;99.90;;;;;;5043497;28;20075;-68
2024/02/17 00:07:16;;;;;;;17.05;9.32;;;12.40;99.90;;;;;;5032762;28;20029;-69
2024/02/17 00:09:42;;;;;;;16.50;9.27;;;12.30;99.90;;;;;;5049946;28;20068;-69
2024/02/17 00:12:09;;;;;;;17.52;10.07;;;12.30;99.90;;;;;;5029717;28;20040;-69
2024/02/17 00:14:38;;;;;;;20.00;9.15;;;12.30;99.90;;;;;;5048352;28;20029;-69
2024/02/17 00:17:05;;;;;;;20.50;9.98;;;12.30;99.90;;;;;;5041545;28;20033;-69
2024/02/17 00:19:31;;;;;;;19.45;10.88;;;12.20;99.90;;;;;;5025642;28;20397;-69
2024/02/17 00:21:57;;;;;;;21.73;11.07;;;12.30;99.90;;;;;;5039597;28;20686;-69
2024/02/17 00:24:22;;;;;;;25.30;11.73;;;12.20;99.90;;;;;;5041950;28;20041;-69
2024/02/17 00:26:49;;;;;;;23.00;10.57;;;12.20;99.90;;;;;;5043499;28;20544;-69
2024/02/17 00:29:18;;;;;;;23.00;11.45;;;12.20;99.90;;;;;;5038857;28;20462;-69
2024/02/17 00:31:46;;;;;;;22.48;11.70;;;12.10;99.90;;;;;;5038838;28;20454;-69
2024/02/17 00:34:12;;;;;;;22.35;11.15;;;12.10;99.90;;;;;;5043378;28;20502;-69
2024/02/17 00:36:38;;;;;;;26.40;12.93;;;12.10;99.90;;;;;;5041943;28;20532;-69
2024/02/17 00:39:04;;;;;;;20.52;11.43;;;12.10;99.90;;;;;;5041114;28;20045;-69
2024/02/17 00:41:30;;;;;;;22.58;11.77;;;12.00;99.90;;;;;;5025479;28;20035;-69
2024/02/17 00:43:55;;;;;;;22.20;12.48;;;12.00;99.90;;;;;;5043900;28;20103;-69
2024/02/17 00:46:21;;;;;;;23.95;12.05;;;12.00;99.90;;;;;;5043769;28;20175;-69
2024/02/17 00:48:46;;;;;;;26.60;13.55;;;12.00;99.90;;;;;;5042693;28;20029;-68
2024/02/17 00:51:14;;;;;;;21.75;12.40;;;12.00;99.90;;;;;;5028269;28;20058;-68
2024/02/17 00:53:42;;;;;;;25.08;12.32;;;12.00;99.90;;;;;;5040361;28;20059;-69
2024/02/17 00:56:08;;;;;;;24.40;12.13;;;12.00;99.90;;;;;;5043999;28;20040;-69
2024/02/17 00:58:33;;;;;;;26.67;12.52;;;12.00;99.90;;;;;;5039080;28;20613;-68
2024/02/17 01:00:59;;;;;;;25.83;12.95;;;12.00;99.90;;;;;;5034224;28;20067;-69
2024/02/17 01:03:25;;;;;;;26.95;13.52;;;12.00;99.90;;;;;;5041323;28;20064;-68
2024/02/17 01:05:50;;;;;;;22.02;12.55;;;12.00;99.90;;;;;;5038435;28;20031;-68
2024/02/17 01:08:16;;;;;;;23.83;12.75;;;12.00;99.90;;;;;;5036527;28;20064;-69
2024/02/17 01:10:42;;;;;;;25.85;13.10;;;12.00;99.90;;;;;;5042021;28;20075;-68
2024/02/17 01:13:09;;;;;;;24.77;12.95;;;12.00;99.90;;;;;;5035703;28;20474;-69
2024/02/17 01:15:35;;;;;;;27.70;14.75;;;12.00;99.90;;;;;;5037704;28;20088;-69
2024/02/17 01:18:01;;;;;;;29.30;13.27;;;11.90;99.90;;;;;;5039712;28;20104;-69
2024/02/17 01:20:27;;;;;;;24.17;13.75;;;11.90;99.90;;;;;;5040905;28;20124;-68
2024/02/17 01:22:52;;;;;;;24.83;12.55;;;11.90;99.90;;;;;;5039624;28;20410;-68
2024/02/17 01:25:20;;;;;;;26.77;13.48;;;11.90;99.90;;;;;;5024298;28;20072;-69
2024/02/17 01:27:47;;;;;;;29.67;14.20;;;11.90;99.90;;;;;;5040980;28;20115;-69
2024/02/17 01:30:13;;;;;;;31.45;16.27;;;11.90;99.90;;;;;;5039852;28;20060;-69
2024/02/17 01:32:38;;;;;;;30.63;14.98;;;11.90;99.90;;;;;;5052201;28;20068;-68
2024/02/17 01:35:05;;;;;;;32.90;15.00;;;11.90;99.90;;;;;;5044368;28;20041;-68
2024/02/17 01:37:31;;;;;;;27.92;15.40;;;11.80;99.90;;;;;;5025737;28;20120;-69
2024/02/17 01:39:56;;;;;;;25.45;14.32;;;11.90;99.90;;;;;;5041256;28;20123;-69
2024/02/17 01:42:22;;;;;;;28.08;13.98;;;11.80;99.90;;;;;;5024523;28;20060;-69
2024/02/17 01:44:48;;;;;;;24.25;13.88;;;11.90;99.90;;;;;;5038333;28;20124;-68
2024/02/17 01:47:14;;;;;;;31.13;14.30;;;11.90;99.90;;;;;;5022202;28;20040;-69
2024/02/17 01:49:40;;;;;;;27.63;13.55;;;11.90;99.90;;;;;;5037736;28;20029;-69
2024/02/17 01:52:06;;;;;;;24.08;13.60;;;11.80;99.90;;;;;;5027197;28;20063;-69
2024/02/17 01:54:32;;;;;;;26.08;14.10;;;11.90;99.90;;;;;;5032472;28;20037;-69
2024/02/17 01:56:59;;;;;;;25.75;12.68;;;11.80;99.90;;;;;;5041385;28;20059;-69
2024/02/17 01:59:26;;;;;;;23.87;13.50;;;11.80;99.90;;;;;;5042039;28;20095;-69
2024/02/17 02:01:53;;;;;;;28.05;13.15;;;11.80;99.90;;;;;;5037689;28;20037;-69
2024/02/17 02:04:19;;;;;;;22.02;12.18;;;11.70;99.90;;;;;;5042947;28;20064;-69
2024/02/17 02:06:44;;;;;;;20.60;12.18;;;11.70;99.90;;;;;;5042870;28;20567;-68
2024/02/17 02:09:10;;;;;;;20.33;12.50;;;11.70;99.90;;;;;;5040003;28;20033;-69
2024/02/17 02:11:38;;;;;;;22.80;12.73;;;11.70;99.90;;;;;;5021495;28;20029;-70
2024/02/17 02:14:31;;;;;;;20.90;12.13;;;11.70;99.90;;;;;;5018067;28;20051;-69
2024/02/17 02:16:57;;;;;;;23.00;12.40;;;11.60;99.90;;;;;;5035606;28;20059;-69
2024/02/17 02:19:23;;;;;;;24.70;12.65;;;11.60;99.90;;;;;;5041163;28;20044;-69
2024/02/17 02:21:49;;;;;;;22.42;12.82;;;11.70;99.90;;;;;;5036860;28;20102;-68
2024/02/17 02:24:14;;;;;;;26.58;11.95;;;11.70;99.90;;;;;;5043131;28;20032;-69
2024/02/17 02:26:40;;;;;;;20.27;12.05;;;11.60;99.90;;;;;;5038883;28;20559;-68
2024/02/17 02:29:09;;;;;;;25.15;12.43;;;11.70;99.90;;;;;;5037998;28;20021;-69
2024/02/17 02:31:35;;;;;;;22.85;11.73;;;11.60;99.90;;;;;;5034773;28;20026;-68
2024/02/17 02:34:01;;;;;;;22.27;12.02;;;11.60;99.90;;;;;;5037213;28;20040;-70
2024/02/17 02:36:26;;;;;;;26.80;12.20;;;11.60;99.90;;;;;;5036713;28;20083;-69
2024/02/17 02:38:55;;;;;;;21.85;12.00;;;11.60;99.90;;;;;;5024742;28;20116;-69
2024/02/17 02:41:21;;;;;;;19.52;10.98;;;11.60;99.90;;;;;;5037560;28;20060;-69
2024/02/17 02:43:48;;;;;;;19.27;11.15;;;11.60;99.90;;;;;;5035887;28;20498;-69
2024/02/17 02:46:13;;;;;;;22.98;12.25;;;11.60;99.90;;;;;;5041319;28;20017;-69
2024/02/17 02:48:39;;;;;;;23.70;11.75;;;11.60;99.90;;;;;;5055998;28;20108;-70
2024/02/17 02:51:05;;;;;;;26.15;12.63;;;11.50;99.90;;;;;;5021568;28;20025;-69
2024/02/17 02:53:30;;;;;;;22.85;11.13;;;11.50;99.90;;;;;;5038684;28;20446;-69
2024/02/17 02:55:56;;;;;;;23.30;10.75;;;11.50;99.90;;;;;;5042651;28;20029;-69
2024/02/17 02:58:22;;;;;;;21.77;10.85;;;11.50;99.90;;;;;;5037529;28;20029;-69
2024/02/17 03:00:47;;;;;;;18.92;10.60;;;11.40;99.90;;;;;;5041595;28;20037;-69
2024/02/17 03:03:13;;;;;;;22.50;9.82;;;11.40;99.90;;;;;;5039327;28;20040;-68
2024/02/17 03:05:39;;;;;;;16.75;9.73;;;11.40;99.90;;;;;;5032872;28;20040;-68
2024/02/17 03:08:05;;;;;;;23.67;11.07;;;11.30;99.90;;;;;;5024683;28;21026;-68
2024/02/17 03:10:31;;;;;;;22.73;9.80;;;11.30;99.90;;;;;;5037190;28;20026;-68
2024/02/17 03:12:57;;;;;;;20.38;8.98;;;11.20;99.90;;;;;;5041580;28;20056;-69
2024/02/17 03:15:23;;;;;;;17.00;9.10;;;11.20;99.90;;;;;;5025312;28;20049;-70
2024/02/17 03:17:53;;;;;;;18.98;8.65;;;11.20;99.90;;;;;;5040066;28;20029;-69
2024/02/17 03:20:19;;;;;;;15.82;8.57;;;11.20;99.90;;;;;;5029926;28;20033;-69
2024/02/17 03:22:45;;;;;;;18.42;8.20;;;11.20;99.90;;;;;;5042141;28;20033;-69
2024/02/17 03:25:11;;;;;;;15.20;8.23;;;11.20;99.90;;;;;;5021376;28;20033;-68
2024/02/17 03:27:37;;;;;;;15.55;8.48;;;11.20;99.90;;;;;;5025676;28;20032;-69
2024/02/17 03:30:05;;;;;;;19.83;8.52;;;11.20;99.90;;;;;;5041334;28;20030;-69
2024/02/17 03:32:31;;;;;;;15.13;7.95;;;11.10;99.90;;;;;;5038954;28;20052;-69
2024/02/17 03:34:57;;;;;;;19.65;9.15;;;11.10;99.90;;;;;;5043905;28;20037;-69
2024/02/17 03:37:22;;;;;;;16.85;8.88;;;11.10;99.90;;;;;;5024422;28;20033;-69
2024/02/17 03:39:48;;;;;;;17.02;7.50;;;11.10;99.90;;;;;;5033949;28;20025;-69
2024/02/17 03:42:14;;;;;;;16.80;8.27;;;11.10;99.90;;;;;;5037814;28;20115;-69
2024/02/17 03:44:40;;;;;;;18.77;8.90;;;11.10;99.90;;;;;;5036614;28;20489;-68
2024/02/17 03:47:05;;;;;;;17.50;8.95;;;11.10;99.90;;;;;;5034899;28;20032;-68
2024/02/17 03:49:31;;;;;;;17.48;8.05;;;11.10;99.90;;;;;;5039300;28;20466;-70
2024/02/17 03:51:57;;;;;;;19.50;8.02;;;11.10;99.90;;;;;;5036326;28;20029;-69
2024/02/17 03:54:22;;;;;;;18.70;8.25;;;11.10;99.90;;;;;;5037810;28;20032;-69
2024/02/17 03:56:48;;;;;;;19.25;7.90;;;11.10;99.90;;;;;;5049296;28;20041;-69
2024/02/17 03:59:13;;;;;;;18.23;7.78;;;11.10;99.90;;;;;;5023407;28;20037;-69
2024/02/17 04:01:41;;;;;;;19.45;7.55;;;11.10;99.90;;;;;;5043695;28;20064;-69
2024/02/17 04:04:06;;;;;;;14.67;7.30;;;11.00;99.90;;;;;;5046980;28;20060;-68
2024/02/17 04:06:32;;;;;;;17.50;7.90;;;11.00;99.90;;;;;;5042992;28;20049;-69
2024/02/17 04:08:58;;;;;;;16.35;7.90;;;11.00;99.90;;;;;;5026502;28;20064;-68
2024/02/17 04:11:28;;;;;;;15.05;7.85;;;11.00;99.90;;;;;;5027735;28;20025;-69
2024/02/17 04:13:56;;;;;;;21.60;8.30;;;11.00;99.90;;;;;;5043148;28;20492;-68
2024/02/17 04:16:21;;;;;;;19.92;8.90;;;11.00;99.90;;;;;;5038683;28;20501;-70
2024/02/17 04:18:48;;;;;;;18.75;8.32;;;11.00;99.90;;;;;;5039674;28;20034;-69
2024/02/17 04:21:14;;;;;;;16.10;7.47;;;10.90;99.90;;;;;;5025927;28;20033;-68
2024/02/17 04:23:43;;;;;;;15.10;7.75;;;11.00;99.90;;;;;;5025127;28;20086;-69
2024/02/17 04:26:09;;;;;;;16.77;8.50;;;11.00;99.90;;;;;;5037377;28;20390;-69
2024/02/17 04:28:36;;;;;;;15.32;8.25;;;11.00;99.90;;;;;;5040646;28;20171;-69
2024/02/17 04:31:03;;;;;;;16.08;8.18;;;11.00;99.90;;;;;;5038150;28;20029;-68
2024/02/17 04:33:28;;;;;;;25.27;9.68;;;10.90;99.90;;;;;;5043016;28;20162;-69
2024/02/17 04:35:54;;;;;;;18.80;8.77;;;10.90;99.90;;;;;;5040411;28;20108;-68
2024/02/17 04:38:20;;;;;;;18.67;9.82;;;11.00;99.90;;;;;;5023576;28;20029;-68
2024/02/17 04:40:45;;;;;;;21.30;9.38;;;10.90;99.90;;;;;;5045103;28;20111;-69
2024/02/17 04:43:12;;;;;;;21.10;9.48;;;10.90;99.90;;;;;;5028293;28;20036;-69
2024/02/17 04:45:37;;;;;;;18.48;9.15;;;11.00;99.90;;;;;;5027739;28;20524;-69
2024/02/17 04:48:03;;;;;;;23.52;10.38;;;10.90;99.90;;;;;;5024680;28;20051;-69
2024/02/17 04:50:29;;;;;;;22.80;9.70;;;10.90;99.90;;;;;;5024203;28;20513;-69
2024/02/17 04:52:54;;;;;;;24.60;10.27;;;11.00;99.90;;;;;;5037260;28;20021;-69
2024/02/17 04:55:20;;;;;;;26.45;10.27;;;10.90;99.90;;;;;;5040445;28;20037;-70
2024/02/17 04:57:46;;;;;;;20.90;9.07;;;10.90;99.90;;;;;;5026114;28;20131;-69
2024/02/17 05:00:12;;;;;;;21.05;8.77;;;11.00;99.90;;;;;;5043097;28;20037;-69
2024/02/17 05:02:38;;;;;;;15.90;8.75;;;10.90;99.90;;;;;;5038483;28;20029;-69
2024/02/17 05:05:04;;;;;;;19.05;9.05;;;10.90;99.90;;;;;;5038418;28;20040;-69
2024/02/17 05:07:30;;;;;;;15.52;8.52;;;10.90;99.90;;;;;;5042386;28;20021;-69
2024/02/17 05:09:55;;;;;;;19.90;8.60;;;10.90;99.90;;;;;;5040501;28;20108;-68
2024/02/17 05:12:21;;;;;;;17.70;7.85;;;10.90;99.90;;;;;;5038005;28;20067;-68
2024/02/17 05:14:46;;;;;;;15.65;8.25;;;10.90;99.90;;;;;;5042945;28;20481;-69
2024/02/17 05:17:12;;;;;;;15.85;7.63;;;10.90;99.90;;;;;;5041533;28;20131;-69
2024/02/17 05:19:38;;;;;;;16.65;8.43;;;10.90;99.90;;;;;;5033830;28;20032;-68
2024/02/17 05:22:04;;;;;;;14.27;7.63;;;10.80;99.90;;;;;;5045195;28;20071;-69
2024/02/17 05:24:31;;;;;;;17.17;7.65;;;10.90;99.90;;;;;;5023758;28;20037;-68
2024/02/17 05:26:57;;;;;;;18.33;7.23;;;10.90;99.90;;;;;;5044208;28;20025;-68
2024/02/17 05:29:22;;;;;;;19.27;8.60;;;11.00;99.90;;;;;;5043323;28;20048;-68
2024/02/17 05:31:48;;;;;;;19.67;7.45;;;10.90;99.90;;;;;;5023387;28;20025;-69
2024/02/17 05:34:13;;;;;;;18.20;8.05;;;10.90;99.90;;;;;;5043186;28;20114;-68
2024/02/17 05:36:39;;;;;;;15.93;8.27;;;10.80;99.90;;;;;;5044607;28;20029;-69
2024/02/17 05:39:05;;;;;;;17.50;7.75;;;10.90;99.90;;;;;;5034697;28;20041;-69
2024/02/17 05:41:30;;;;;;;19.67;8.48;;;10.90;99.90;;;;;;5037950;28;20029;-69
2024/02/17 05:43:56;;;;;;;16.80;7.97;;;10.90;99.90;;;;;;5037019;28;20029;-68
2024/02/17 05:46:23;;;;;;;19.50;7.82;;;10.80;99.90;;;;;;5026932;28;20025;-69
2024/02/17 05:48:49;;;;;;;23.58;8.38;;;10.80;99.90;;;;;;5044081;28;20025;-69
2024/02/17 05:51:15;;;;;;;13.25;7.35;;;10.90;99.90;;;;;;5026206;28;20112;-68
2024/02/17 05:53:40;;;;;;;16.48;6.93;;;10.80;99.90;;;;;;5040488;28;20035;-69
2024/02/17 05:56:07;;;;;;;18.10;7.25;;;10.80;99.90;;;;;;5020963;28;20033;-68
2024/02/17 05:58:33;;;;;;;17.33;6.50;;;10.80;99.90;;;;;;5038725;28;20184;-69
2024/02/17 06:01:01;;;;;;;19.63;5.85;;;10.80;99.90;;;;;;5042935;28;20041;-69
2024/02/17 06:03:27;;;;;;;15.35;5.38;;;10.70;99.90;;;;;;5036219;28;20073;-69
2024/02/17 06:05:53;;;;;;;10.50;4.75;;;10.80;99.90;;;;;;5042210;28;20037;-69
2024/02/17 06:08:20;;;;;;;10.50;4.10;;;10.70;99.90;;;;;;5037045;28;20049;-68
2024/02/17 06:10:46;;;;;;;8.95;4.22;;;10.70;99.90;;;;;;5034642;28;20088;-69
2024/02/17 06:13:11;;;;;;;7.57;3.90;;;10.70;99.90;;;;;;5036270;28;20521;-69
2024/02/17 06:15:42;;;;;;;14.35;4.57;;;10.70;99.90;;;;;;5035062;28;20109;-69
2024/02/17 06:21:11;;;;;;;10.52;4.50;;;10.70;99.90;;;;;;5037904;28;20453;-68
2024/02/17 06:23:47;;;;;;;13.15;5.10;;;10.70;99.90;;;;;;5038202;28;20029;-68
2024/02/17 06:26:30;;;;;;;10.27;4.78;;;10.70;99.90;;;;;;5039112;28;20056;-69
2024/02/17 06:28:57;;;;;;;13.52;4.90;;;10.70;99.90;;;;;;5039793;28;20033;-69
2024/02/17 06:31:24;;;;;;;13.25;4.95;;;10.60;99.90;;;;;;5044104;28;20037;-70
2024/02/17 06:33:51;;;;;;;10.52;4.03;;;10.60;99.90;;;;;;5040996;28;20059;-69
2024/02/17 06:36:18;;;;;;;12.73;4.55;;;10.60;99.90;;;;;;5026140;28;20036;-68
2024/02/17 06:38:45;;;;;;;13.98;4.93;;;10.60;99.90;;;;;;5040849;28;20051;-69
2024/02/17 06:41:11;;;;;;;11.18;5.03;;;10.60;99.90;;;;;;5039368;28;20125;-69
2024/02/17 06:43:37;;;;;;;12.45;5.40;;;10.60;99.90;;;;;;5024260;28;20083;-68
2024/02/17 06:46:05;;;;;;;11.02;4.30;;;10.60;99.90;;;;;;5023632;28;20105;-68
2024/02/17 06:48:31;;;;;;;9.63;4.68;;;10.60;99.90;;;;;;5040461;28;20477;-69
2024/02/17 06:50:56;;;;;;;13.30;4.28;;;10.60;99.90;;;;;;5039774;28;20040;-68
2024/02/17 06:53:22;;;;;;;6.43;4.30;;;10.70;99.90;;;;;;5016559;28;20025;-68
2024/02/17 06:55:47;;;;;;;15.18;4.13;;;10.60;99.90;;;;;;5043776;28;20039;-68
2024/02/17 06:58:14;;;;;;;10.98;4.13;;;10.60;99.90;;;;;;5039686;28;20024;-69
2024/02/17 07:00:40;;;;;;;10.90;4.30;;;10.60;99.90;;;;;;5038054;28;20047;-68
2024/02/17 07:03:06;;;;;;;12.55;4.57;;;10.60;99.90;;;;;;5035725;28;20275;-69
2024/02/17 07:05:32;;;;;;;10.88;4.07;;;10.60;99.90;;;;;;5044224;28;20036;-69
2024/02/17 07:07:58;;;;;;;8.02;4.07;;;10.60;99.90;;;;;;5040450;28;20013;-69
2024/02/17 07:10:23;;;;;;;11.35;4.22;;;10.60;99.90;;;;;;5044095;28;20056;-68
2024/02/17 07:12:49;;;;;;;9.23;4.03;;;10.60;99.90;;;;;;5035362;28;20045;-69
2024/02/17 07:15:15;;;;;;;8.60;4.13;;;10.60;99.90;;;;;;5026281;28;20061;-68
2024/02/17 07:17:42;;;;;;;10.68;3.53;;;10.60;99.90;;;;;;5039221;28;20079;-69
2024/02/17 07:20:09;;;;;;;5.47;2.97;;;10.60;99.90;;;;;;5045183;28;20033;-69
2024/02/17 07:22:35;;;;;;;4.25;2.45;;;10.60;99.90;;;;;;5043240;28;20489;-69
2024/02/17 07:25:00;;;;;;;9.55;3.47;;;10.60;99.90;;;;;;5038692;28;20029;-69
2024/02/17 07:27:27;;;;;;;8.80;3.05;;;10.60;99.90;;;;;;5059175;28;20037;-68
2024/02/17 07:29:53;;;;;;;7.70;3.42;;;10.60;99.90;;;;;;5045338;28;20837;-69
2024/02/17 07:32:22;;;;;;;11.35;3.80;;;10.60;99.90;;;;;;5026268;28;20029;-68
2024/02/17 07:34:51;;;;;;;10.98;3.17;;;10.60;99.90;;;;;;5054628;28;20091;-69
2024/02/17 07:37:20;;;;;;;7.63;3.65;;;10.60;99.90;;;;;;5031916;28;20025;-68
2024/02/17 07:39:48;;;;;;;9.18;3.65;;;10.70;99.90;;;;;;5050737;28;20035;-68
2024/02/17 07:42:14;;;;;;;7.10;3.33;;;10.70;99.90;;;;;;5044099;28;20013;-68
2024/02/17 07:44:45;;;;;;;7.82;3.20;;;10.60;99.90;;;;;;5052787;28;20071;-68
2024/02/17 07:47:11;;;;;;;9.88;4.05;;;10.60;99.90;;;;;;5042491;28;20033;-68
2024/02/17 07:49:37;;;;;;;9.68;3.22;;;10.70;99.90;;;;;;5047765;28;20024;-70
2024/02/17 07:52:02;;;;;;;9.50;3.10;;;10.70;99.90;;;;;;5058469;28;20075;-70
2024/02/17 07:54:28;;;;;;;7.03;3.10;;;10.70;99.90;;;;;;5027641;28;20038;-69
2024/02/17 07:56:54;;;;;;;11.52;4.65;;;10.80;99.90;;;;;;5025504;28;20374;-68
2024/02/17 07:59:19;;;;;;;12.68;3.58;;;10.80;99.90;;;;;;5044502;28;20037;-69
2024/02/17 08:01:45;;;;;;;14.23;4.20;;;10.80;99.90;;;;;;5048084;28;20451;-68
2024/02/17 08:04:10;;;;;;;6.32;2.88;;;10.80;99.90;;;;;;5042975;28;20039;-68
2024/02/17 08:06:36;;;;;;;9.68;3.95;;;10.80;99.90;;;;;;5044383;28;20622;-70
2024/02/17 08:09:02;;;;;;;8.77;3.17;;;10.80;99.90;;;;;;5052287;28;20029;-68
2024/02/17 08:11:27;;;;;;;7.53;3.22;;;10.80;99.90;;;;;;5048840;28;20041;-69
2024/02/17 08:13:53;;;;;;;6.30;3.60;;;10.80;99.90;;;;;;5048428;28;20037;-69
2024/02/17 08:16:18;;;;;;;7.10;3.92;;;10.80;99.90;;;;;;5045425;28;20033;-69
2024/02/17 08:18:44;;;;;;;7.95;3.92;;;10.80;99.90;;;;;;5029313;28;20024;-69
2024/02/17 08:21:10;;;;;;;9.82;4.18;;;10.90;99.90;;;;;;5048799;28;20037;-69
2024/02/17 08:23:36;;;;;;;9.63;3.55;;;10.90;99.90;;;;;;5046840;28;20031;-69
2024/02/17 08:26:01;;;;;;;7.82;4.15;;;10.90;99.90;;;;;;5053553;28;20025;-69
2024/02/17 08:28:28;;;;;;;12.07;4.30;;;10.90;99.90;;;;;;5047036;28;20099;-70
2024/02/17 08:30:54;;;;;;;13.43;4.20;;;10.90;99.90;;;;;;5046299;28;20082;-69
2024/02/17 08:33:19;;;;;;;12.90;4.82;;;10.90;99.90;;;;;;5055519;28;20028;-69
2024/02/17 08:35:45;;;;;;;14.50;4.75;;;10.90;99.90;;;;;;5049428;28;20037;-69
2024/02/17 08:38:13;;;;;;;10.18;4.30;;;10.90;99.90;;;;;;5046472;28;20448;-68
2024/02/17 08:40:39;;;;;;;8.73;4.40;;;11.00;99.90;;;;;;5046023;28;20033;-70
2024/02/17 08:43:08;;;;;;;12.20;4.63;;;11.00;99.90;;;;;;5048314;28;20448;-68
2024/02/17 08:45:34;;;;;;;8.88;4.13;;;11.00;99.90;;;;;;5040243;28;20379;-69
2024/02/17 08:47:59;;;;;;;12.65;4.25;;;11.00;99.90;;;;;;5048997;28;20040;-68
2024/02/17 08:50:25;;;;;;;10.00;4.95;;;11.00;99.90;;;;;;5046148;28;20025;-68
2024/02/17 08:52:50;;;;;;;8.13;4.03;;;11.00;99.90;;;;;;5047220;28;20040;-68
2024/02/17 08:55:16;;;;;;;8.93;3.80;;;11.00;99.90;;;;;;5049176;28;20545;-69
2024/02/17 08:57:42;;;;;;;10.10;4.45;;;11.00;99.90;;;;;;5047778;28;20063;-69
2024/02/17 09:00:08;;;;;;;9.43;4.55;;;11.00;99.90;;;;;;5048404;28;20108;-67
2024/02/17 09:02:34;;;;;;;6.25;3.70;;;11.00;99.90;;;;;;5047575;28;20233;-69
2024/02/17 09:05:03;;;;;;;8.18;3.97;;;11.00;99.90;;;;;;5049004;28;20045;-68
2024/02/17 09:07:29;;;;;;;10.30;4.25;;;11.00;99.90;;;;;;5048192;28;20176;-68
2024/02/17 09:09:55;;;;;;;6.70;3.72;;;11.10;99.90;;;;;;5040177;28;20482;-69
2024/02/17 09:12:21;;;;;;;9.80;4.25;;;11.00;99.90;;;;;;5045324;28;20044;-69
2024/02/17 09:14:47;;;;;;;8.23;4.30;;;11.00;99.90;;;;;;5046624;28;20029;-70
2024/02/17 09:17:13;;;;;;;12.88;4.65;;;11.10;99.90;;;;;;5048307;28;20021;-69
2024/02/17 09:19:40;;;;;;;10.38;4.40;;;11.00;99.90;;;;;;5045375;28;20040;-68
2024/02/17 09:22:05;;;;;;;11.38;5.25;;;11.00;99.90;;;;;;5047656;28;20051;-69
2024/02/17 09:24:31;;;;;;;14.02;5.55;;;11.00;99.90;;;;;;5048150;28;20037;-70
2024/02/17 09:27:00;;;;;;;12.02;5.07;;;11.00;99.90;;;;;;5039834;28;20375;-70
2024/02/17 09:29:26;;;;;;;10.35;4.72;;;11.00;99.90;;;;;;5047694;28;20024;-69
2024/02/17 09:31:52;;;;;;;10.43;4.07;;;11.00;99.90;;;;;;5047173;28;20028;-69
2024/02/17 09:34:18;;;;;;;7.10;3.33;;;11.00;99.90;;;;;;5047674;28;20112;-68
2024/02/17 09:36:43;;;;;;;6.30;3.60;;;11.00;99.90;;;;;;5047218;28;20036;-69
2024/02/17 09:39:09;;;;;;;11.35;3.78;;;11.00;99.90;;;;;;5043519;28;20059;-68
2024/02/17 09:41:36;;;;;;;7.78;3.47;;;11.10;99.90;;;;;;5039099;28;20030;-69
2024/02/17 09:44:02;;;;;;;6.65;3.67;;;11.00;99.90;;;;;;5047397;28;20490;-68
2024/02/17 09:46:27;;;;;;;8.00;3.35;;;11.10;99.90;;;;;;5026359;28;20097;-69
2024/02/17 09:49:01;;;;;;;7.53;3.65;;;11.10;99.90;;;;;;5038661;28;20923;-69
2024/02/17 09:51:28;;;;;;;6.28;2.80;;;11.20;99.90;;;;;;5042468;28;20400;-69
2024/02/17 09:53:55;;;;;;;6.28;2.63;;;11.20;99.90;;;;;;5041426;28;20041;-68
2024/02/17 09:56:21;;;;;;;7.10;2.47;;;11.30;99.90;;;;;;5039335;28;20021;-69
2024/02/17 09:58:46;;;;;;;4.82;2.72;;;11.20;99.90;;;;;;5032310;28;20115;-65
2024/02/17 10:01:13;;;;;;;4.53;2.63;;;11.30;99.90;;;;;;5040592;28;20063;-65
2024/02/17 10:03:39;;;;;;;7.68;2.70;;;11.40;99.90;;;;;;5037474;28;20036;-64
2024/02/17 10:06:16;;;;;;;5.03;2.30;;;11.40;99.90;;;;;;5044180;28;20037;-65
2024/02/17 10:08:44;;;;;;;8.35;2.28;;;11.40;99.90;;;;;;5045011;28;20087;-69
2024/02/17 10:11:10;;;;;;;5.72;2.50;;;11.40;99.90;;;;;;5036874;28;20033;-66
2024/02/17 10:13:40;;;;;;;4.50;2.30;;;11.40;99.90;;;;;;5036075;28;20139;-65
2024/02/17 10:16:17;;;;;;;11.55;2.58;;;11.30;99.90;;;;;;5040825;28;20179;-69
2024/02/17 10:18:45;;;;;;;7.80;2.33;;;11.30;99.90;;;;;;5043419;28;20079;-65
2024/02/17 10:21:11;;;;;;;4.13;2.50;;;11.30;99.90;;;;;;5045535;28;20200;-68
2024/02/17 10:23:37;;;;;;;3.80;2.13;;;11.20;99.90;;;;;;5037538;28;20053;-65
2024/02/17 10:26:03;;;;;;;7.68;2.88;;;11.30;99.90;;;;;;5037473;28;20033;-64
2024/02/17 10:28:30;;;;;;;9.13;2.30;;;11.30;99.90;;;;;;5036205;28;20041;-68
2024/02/17 10:30:56;;;;;;;5.32;2.20;;;11.30;99.90;;;;;;5039836;28;20025;-65
2024/02/17 10:33:24;;;;;;;6.93;2.35;;;11.40;99.90;;;;;;5039915;28;20037;-66
2024/02/17 10:35:50;;;;;;;7.55;2.75;;;11.40;99.90;;;;;;5023941;28;20413;-66
2024/02/17 10:38:15;;;;;;;6.88;2.72;;;11.50;99.90;;;;;;5045134;28;20421;-68
2024/02/17 10:40:42;;;;;;;7.00;2.50;;;11.40;99.90;;;;;;5044120;28;20063;-67
2024/02/17 10:43:07;;;;;;;8.32;2.78;;;11.30;99.90;;;;;;5034552;28;20188;-67
2024/02/17 10:45:33;;;;;;;4.95;2.55;;;11.30;99.90;;;;;;5038077;28;20522;-66
2024/02/17 10:48:10;;;;;;;3.53;2.25;;;11.40;99.90;;;;;;5022751;28;20025;-65
2024/02/17 10:50:41;;;;;;;4.13;2.22;;;11.50;99.90;;;;;;5047402;28;20029;-65
2024/02/17 10:53:39;;;;;;;7.32;2.45;;;11.70;99.90;;;;;;5041334;28;20842;-66
2024/02/17 10:56:13;;;;;;;3.42;2.35;;;11.90;99.90;;;;;;5036931;28;20041;-66
2024/02/17 10:58:40;;;;;;;8.02;2.30;;;12.00;99.90;;;;;;5050169;28;20485;-64
2024/02/17 11:01:08;;;;;;;3.97;2.17;;;12.00;99.90;;;;;;5041933;28;20540;-63
2024/02/17 11:03:37;;;;;;;;;;;12.10;99.90;;;;;;5046139;28;20033;-64
2024/02/17 11:06:06;;;;;;;3.72;1.55;;;11.90;99.90;;;;;;5020822;28;20396;-66
2024/02/17 11:08:35;;;;;;;3.15;2.20;;;11.90;99.90;;;;;;5024865;28;20021;-67
2024/02/17 11:11:26;;;;;;;4.30;1.85;;;11.80;99.90;;;;;;5039609;28;20167;-65
2024/02/17 11:13:54;;;;;;;3.58;2.00;;;11.80;99.90;;;;;;5044695;28;20453;-61
2024/02/17 11:16:22;;;;;;;3.47;1.73;;;11.80;99.90;;;;;;5037809;28;20025;-66
2024/02/17 11:18:53;;;;;;;5.72;2.00;;;11.70;99.90;;;;;;5041195;28;20036;-66
2024/02/17 11:21:37;;;;;;;4.43;2.05;;;11.70;99.90;;;;;;5025286;28;20120;-65
2024/02/17 11:24:02;;;;;;;4.35;2.13;;;11.80;99.90;;;;;;5031970;28;20072;-65
2024/02/17 11:26:30;;;;;;;5.47;2.17;;;12.00;99.90;;;;;;5038448;28;20094;-65
2024/02/17 11:28:56;;;;;;;;;;;12.20;99.90;;;;;;5039175;28;20025;-65
2024/02/17 11:31:28;;;;;;;5.40;2.20;;;12.30;99.90;;;;;;5037800;28;20498;-66
2024/02/17 11:34:02;;;;;;;3.28;1.80;;;12.70;99.90;;;;;;5025074;28;20082;-65
2024/02/17 11:36:31;;;;;;;4.75;2.05;;;13.00;99.90;;;;;;5040270;28;20031;-67
2024/02/17 11:38:59;;;;;;;2.83;1.70;;;13.30;99.90;;;;;;5038054;28;20120;-66
2024/02/17 11:41:25;;;;;;;2.22;1.60;;;13.40;99.90;;;;;;5037552;28;20049;-65
2024/02/17 11:43:51;;;;;;;2.67;1.77;;;13.40;99.90;;;;;;5040171;28;20760;-67
2024/02/17 11:46:19;;;;;;;3.70;1.70;;;13.50;99.90;;;;;;5039318;28;20104;-66
2024/02/17 11:48:45;;;;;;;4.00;1.98;;;13.50;99.90;;;;;;5037058;28;20017;-66
2024/02/17 11:51:18;;;;;;;2.65;1.58;;;13.40;99.90;;;;;;5038956;28;20028;-65
2024/02/17 11:53:45;;;;;;;2.47;1.70;;;13.40;99.90;;;;;;5034050;28;20498;-65
2024/02/17 11:56:12;;;;;;;2.08;1.77;;;13.80;99.90;;;;;;5015350;28;20694;-66
2024/02/17 11:58:38;;;;;;;3.45;2.10;;;14.60;99.90;;;;;;5035423;28;20034;-67
2024/02/17 12:01:04;;;;;;;3.58;2.13;;;15.20;99.90;;;;;;5036174;28;20418;-67
2024/02/17 12:03:30;;;;;;;2.13;1.45;;;15.70;99.70;;;;;;5036998;28;20494;-68
2024/02/17 12:06:00;;;;;;;5.20;1.40;;;15.90;98.70;;;;;;5041070;28;20032;-68
2024/02/17 12:08:26;;;;;;;4.53;2.15;;;16.10;98.80;;;;;;5037412;28;20056;-68
2024/02/17 12:10:52;;;;;;;1.60;1.50;;;16.40;98.40;;;;;;5033823;28;20040;-67
2024/02/17 12:13:18;;;;;;;5.03;1.42;;;16.80;99.10;;;;;;5033300;28;20029;-67
2024/02/17 12:15:43;;;;;;;4.72;1.42;;;17.10;98.50;;;;;;5036224;28;20397;-67
2024/02/17 12:18:10;;;;;;;3.75;1.50;;;17.20;97.60;;;;;;5044382;28;20035;-68
2024/02/17 12:20:35;;;;;;;2.38;1.50;;;16.90;97.00;;;;;;5041571;28;20059;-67
2024/02/17 12:23:02;;;;;;;4.57;1.35;;;16.70;95.80;;;;;;5045693;28;20020;-68
2024/02/17 12:25:28;;;;;;;3.17;1.25;;;16.30;96.40;;;;;;5023729;28;20030;-68
2024/02/17 12:27:54;;;;;;;1.58;1.33;;;16.00;95.90;;;;;;5045602;28;20025;-68
2024/02/17 12:30:21;;;;;;;1.73;0.90;;;15.70;96.30;;;;;;5046390;28;20654;-67
2024/02/17 12:32:48;;;;;;;3.70;0.80;;;15.40;96.10;;;;;;5042669;28;20052;-67
2024/02/17 12:35:15;;;;;;;2.17;0.98;;;14.90;96.30;;;;;;5040388;28;20582;-67
2024/02/17 12:37:47;;;;;;;10.68;1.42;;;14.50;96.60;;;;;;5041737;28;20030;-67
2024/02/17 12:40:17;;;;;;;2.83;1.05;;;14.30;97.20;;;;;;5043635;28;20037;-66